createdAt,value
2023-03-12T00:01:34.596Z,1.08
2023-03-12T00:04:03.971Z,1.58
2023-03-12T00:06:33.442Z,1.50
2023-03-12T00:09:03.872Z,1.22
2023-03-12T00:11:33.282Z,1.03
2023-03-12T00:14:02.430Z,0.93
2023-03-12T00:16:31.386Z,0.79
2023-03-12T00:19:02.271Z,0.80
2023-03-12T00:21:31.280Z,0.82
2023-03-12T00:24:00.478Z,0.84
2023-03-12T00:26:29.709Z,0.90
2023-03-12T00:28:58.879Z,0.93
2023-03-12T00:31:33.764Z,0.97
2023-03-12T00:34:04.767Z,0.80
2023-03-12T00:36:35.019Z,0.67
2023-03-12T00:39:04.584Z,0.61
2023-03-12T00:41:33.586Z,0.45
2023-03-12T00:44:02.627Z,0.38
2023-03-12T00:46:31.889Z,0.23
2023-03-12T00:49:03.097Z,0.18
2023-03-12T00:51:32.113Z,0.08
2023-03-12T00:54:01.207Z,0.03
2023-03-12T00:56:30.297Z,-0.08
2023-03-12T00:58:59.347Z,-0.26
2023-03-12T01:01:28.820Z,-0.36
2023-03-12T01:04:01.737Z,-0.52
2023-03-12T01:06:32.202Z,-0.54
2023-03-12T01:09:03.162Z,-0.55
2023-03-12T01:11:33.732Z,-0.64
2023-03-12T01:14:04.234Z,-0.73
2023-03-12T01:16:33.426Z,-0.73
2023-03-12T01:19:04.364Z,-0.82
2023-03-12T01:21:36.394Z,-0.90
2023-03-12T01:24:06.024Z,-0.90
2023-03-12T01:26:35.124Z,-0.92
2023-03-12T01:29:04.134Z,-0.98
2023-03-12T01:31:33.301Z,-1.11
2023-03-12T01:34:02.442Z,-1.26
2023-03-12T01:36:32.246Z,-1.29
2023-03-12T01:39:02.883Z,-1.23
2023-03-12T01:41:33.959Z,-1.29
2023-03-12T01:44:05.085Z,-1.26
2023-03-12T01:46:37.096Z,-1.41
2023-03-12T01:49:15.265Z,-1.22
2023-03-12T01:51:50.938Z,-1.12
2023-03-12T01:54:26.929Z,-0.98
2023-03-12T01:56:57.581Z,-1.15
2023-03-12T01:59:31.082Z,-1.38
2023-03-12T02:02:00.520Z,-1.69
2023-03-12T02:04:32.432Z,-1.77
2023-03-12T02:07:06.649Z,-1.87
2023-03-12T02:09:41.095Z,-2.02
2023-03-12T02:12:11.135Z,-2.01
2023-03-12T02:14:40.690Z,-2.00
2023-03-12T02:17:12.396Z,-1.82
2023-03-12T02:19:50.346Z,-1.99
2023-03-12T02:22:21.050Z,-2.12
2023-03-12T02:24:57.740Z,-2.23
2023-03-12T02:27:28.274Z,-2.29
2023-03-12T02:29:57.416Z,-2.25
2023-03-12T02:32:30.718Z,-2.26
2023-03-12T02:35:01.572Z,-2.24
2023-03-12T02:37:30.657Z,-2.03
2023-03-12T02:40:06.976Z,-2.05
2023-03-12T02:42:38.760Z,-2.07
2023-03-12T02:45:09.035Z,-2.05
2023-03-12T02:47:38.457Z,-2.12
2023-03-12T02:50:09.496Z,-2.04
2023-03-12T02:52:38.650Z,-2.18
2023-03-12T02:55:08.860Z,-2.24
2023-03-12T02:57:39.385Z,-2.25
2023-03-12T03:00:14.644Z,-2.25
2023-03-12T03:02:48.013Z,-2.28
2023-03-12T03:05:17.196Z,-2.37
2023-03-12T03:07:46.185Z,-2.45
2023-03-12T03:10:17.416Z,-2.43
2023-03-12T03:12:47.925Z,-2.42
2023-03-12T03:15:17.217Z,-2.45
2023-03-12T03:17:46.986Z,-2.53
2023-03-12T03:20:16.084Z,-2.51
2023-03-12T03:22:45.236Z,-2.47
2023-03-12T03:25:14.229Z,-2.46
2023-03-12T03:27:43.283Z,-2.38
2023-03-12T03:30:14.189Z,-2.34
2023-03-12T03:32:46.974Z,-2.46
2023-03-12T03:35:17.508Z,-2.51
2023-03-12T03:37:46.862Z,-2.53
2023-03-12T03:40:16.002Z,-2.57
2023-03-12T03:42:45.248Z,-2.62
2023-03-12T03:45:15.949Z,-2.69
2023-03-12T03:47:46.296Z,-2.70
2023-03-12T03:50:15.698Z,-2.79
2023-03-12T03:52:44.733Z,-2.83
2023-03-12T03:55:13.864Z,-2.89
2023-03-12T03:57:43.236Z,-2.95
2023-03-12T04:00:17.939Z,-3.02
2023-03-12T04:02:49.580Z,-2.96
2023-03-12T04:05:20.868Z,-2.97
2023-03-12T04:07:53.530Z,-3.05
2023-03-12T04:10:26.266Z,-2.84
2023-03-12T04:12:55.646Z,-2.73
2023-03-12T04:15:26.795Z,-2.83
2023-03-12T04:17:56.058Z,-2.56
2023-03-12T04:20:26.021Z,-2.59
2023-03-12T04:22:55.364Z,-2.78
2023-03-12T04:25:25.181Z,-3.03
2023-03-12T04:27:54.306Z,-3.23
2023-03-12T04:30:23.561Z,-3.28
2023-03-12T04:32:55.156Z,-3.03
2023-03-12T04:35:26.370Z,-2.97
2023-03-12T04:37:55.661Z,-2.96
2023-03-12T04:40:25.381Z,-2.98
2023-03-12T04:42:54.645Z,-3.01
2023-03-12T04:45:24.192Z,-3.06
2023-03-12T04:47:54.757Z,-2.99
2023-03-12T04:50:24.117Z,-3.11
2023-03-12T04:52:53.386Z,-3.23
2023-03-12T04:55:22.669Z,-3.37
2023-03-12T04:57:51.796Z,-3.46
2023-03-12T05:00:22.159Z,-3.42
2023-03-12T05:02:51.294Z,-3.52
2023-03-12T05:05:22.343Z,-3.65
2023-03-12T05:07:51.453Z,-3.68
2023-03-12T05:10:20.758Z,-3.39
2023-03-12T05:12:49.850Z,-3.21
2023-03-12T05:15:20.603Z,-3.18
2023-03-12T05:17:50.323Z,-3.20
2023-03-12T05:20:21.808Z,-3.24
2023-03-12T05:22:51.168Z,-3.30
2023-03-12T05:25:20.533Z,-3.33
2023-03-12T05:27:49.620Z,-3.38
2023-03-12T05:30:19.092Z,-3.27
2023-03-12T05:32:48.356Z,-3.43
2023-03-12T05:35:17.591Z,-3.46
2023-03-12T05:37:49.659Z,-3.51
2023-03-12T05:40:19.077Z,-3.49
2023-03-12T05:42:48.361Z,-3.40
2023-03-12T05:45:19.765Z,-3.29
2023-03-12T05:47:52.808Z,-3.25
2023-03-12T05:50:22.080Z,-3.11
2023-03-12T05:52:52.640Z,-3.12
2023-03-12T05:55:21.929Z,-2.91
2023-03-12T05:57:51.167Z,-2.83
2023-03-12T06:00:21.207Z,-2.93
2023-03-12T06:02:57.119Z,-2.82
2023-03-12T06:05:26.326Z,-2.72
2023-03-12T06:07:56.833Z,-2.67
2023-03-12T06:10:25.963Z,-2.56
2023-03-12T06:12:55.042Z,-2.52
2023-03-12T06:15:24.358Z,-2.43
2023-03-12T06:17:53.867Z,-2.28
2023-03-12T06:20:23.853Z,-2.09
2023-03-12T06:22:55.187Z,-1.96
2023-03-12T06:25:25.698Z,-1.86
2023-03-12T06:27:54.760Z,-1.79
2023-03-12T06:30:23.828Z,-1.73
2023-03-12T06:32:52.924Z,-1.52
2023-03-12T06:35:22.397Z,-1.23
2023-03-12T06:37:51.386Z,-1.14
2023-03-12T06:40:20.833Z,-1.04
2023-03-12T06:42:51.243Z,-1.04
2023-03-12T06:45:20.595Z,-0.88
2023-03-12T06:47:49.754Z,-0.70
2023-03-12T06:50:19.425Z,-0.54
2023-03-12T06:52:49.615Z,-0.62
2023-03-12T06:55:18.835Z,-0.41
2023-03-12T06:57:48.086Z,-0.24
2023-03-12T07:00:19.904Z,0.01
2023-03-12T07:02:48.966Z,0.19
2023-03-12T07:05:18.157Z,0.37
2023-03-12T07:07:47.424Z,0.71
2023-03-12T07:10:16.624Z,0.77
2023-03-12T07:12:46.277Z,0.97
2023-03-12T07:15:15.980Z,1.26
2023-03-12T07:17:46.537Z,1.44
2023-03-12T07:20:16.221Z,1.61
2023-03-12T07:22:45.481Z,1.69
2023-03-12T07:25:15.812Z,1.95
2023-03-12T07:27:45.919Z,2.20
2023-03-12T07:30:15.463Z,2.33
2023-03-12T07:32:44.505Z,2.52
2023-03-12T07:35:14.923Z,2.97
2023-03-12T07:37:43.930Z,3.27
2023-03-12T07:40:14.255Z,3.33
2023-03-12T07:42:43.325Z,3.62
2023-03-12T07:45:14.359Z,3.74
2023-03-12T07:47:43.589Z,4.09
2023-03-12T07:50:15.418Z,4.65
2023-03-12T07:52:44.615Z,5.13
2023-03-12T07:55:14.312Z,5.56
2023-03-12T07:57:43.766Z,5.73
2023-03-12T08:00:17.339Z,6.04
2023-03-12T08:02:46.753Z,6.19
2023-03-12T08:05:17.482Z,6.33
2023-03-12T08:07:46.723Z,5.95
2023-03-12T08:10:15.964Z,5.57
2023-03-12T08:12:45.375Z,5.46
2023-03-12T08:15:14.472Z,5.81
2023-03-12T08:17:44.135Z,5.53
2023-03-12T08:20:14.412Z,5.44
2023-03-12T08:22:45.100Z,5.20
2023-03-12T08:25:14.622Z,5.41
2023-03-12T08:27:43.688Z,5.68
2023-03-12T08:30:14.003Z,5.81
2023-03-12T08:32:43.139Z,6.28
2023-03-12T08:35:12.367Z,6.63
2023-03-12T08:37:41.604Z,6.86
2023-03-12T08:40:14.529Z,7.28
2023-03-12T08:42:45.537Z,6.88
2023-03-12T08:45:16.040Z,6.40
2023-03-12T08:47:45.041Z,6.00
2023-03-12T08:50:16.622Z,6.16
2023-03-12T08:52:46.120Z,6.12
2023-03-12T08:55:16.534Z,6.18
2023-03-12T08:57:46.116Z,6.68
2023-03-12T09:00:18.055Z,7.12
2023-03-12T09:02:49.928Z,7.16
2023-03-12T09:05:19.274Z,6.79
2023-03-12T09:07:50.060Z,6.25
2023-03-12T09:10:20.861Z,6.33
2023-03-12T09:12:49.899Z,6.69
2023-03-12T09:15:19.017Z,6.66
2023-03-12T09:17:48.092Z,7.02
2023-03-12T09:20:17.157Z,7.54
2023-03-12T09:22:46.732Z,7.75
2023-03-12T09:25:16.029Z,8.18
2023-03-12T09:27:48.651Z,7.87
2023-03-12T09:30:21.143Z,6.87
2023-03-12T09:32:50.378Z,7.01
2023-03-12T09:35:19.532Z,7.00
2023-03-12T09:37:51.398Z,7.54
2023-03-12T09:40:25.189Z,7.95
2023-03-12T09:42:59.566Z,8.39
2023-03-12T09:45:32.480Z,8.73
2023-03-12T09:48:04.117Z,8.93
2023-03-12T09:50:40.019Z,9.07
2023-03-12T09:53:20.601Z,9.34
2023-03-12T09:55:53.714Z,9.62
2023-03-12T09:58:29.764Z,9.94
2023-03-12T10:01:08.240Z,10.03
2023-03-12T10:04:06.143Z,10.13
2023-03-12T10:06:40.955Z,9.91
2023-03-12T10:09:28.828Z,9.59
2023-03-12T10:12:10.558Z,9.42
2023-03-12T10:14:55.808Z,9.53
2023-03-12T10:17:46.227Z,9.76
2023-03-12T10:20:43.228Z,10.03
2023-03-12T10:23:19.730Z,10.35
2023-03-12T10:25:55.594Z,10.39
2023-03-12T10:28:35.658Z,9.73
2023-03-12T10:31:09.873Z,8.99
2023-03-12T10:33:46.008Z,8.81
2023-03-12T10:36:19.704Z,8.46
2023-03-12T10:38:49.816Z,8.99
2023-03-12T10:41:22.891Z,9.52
2023-03-12T10:43:52.683Z,9.54
2023-03-12T10:47:00.815Z,9.73
2023-03-12T10:49:35.820Z,10.21
2023-03-12T10:52:08.915Z,10.48
2023-03-12T10:54:40.712Z,10.42
2023-03-12T10:57:10.349Z,10.39
2023-03-12T10:59:43.159Z,10.22
2023-03-12T11:02:35.526Z,10.31
2023-03-12T11:05:22.383Z,9.92
2023-03-12T11:07:52.617Z,10.00
2023-03-12T11:10:26.849Z,10.74
2023-03-12T11:13:03.773Z,11.51
2023-03-12T11:15:41.059Z,11.59
2023-03-12T11:18:29.817Z,11.67
2023-03-12T11:21:13.544Z,11.71
2023-03-12T11:23:44.985Z,11.63
2023-03-12T11:26:19.739Z,11.61
2023-03-12T11:28:52.202Z,11.88
2023-03-12T11:31:27.264Z,12.30
2023-03-12T11:34:04.528Z,12.37
2023-03-12T11:36:47.966Z,10.94
2023-03-12T11:39:27.772Z,10.72
2023-03-12T11:42:19.050Z,11.06
2023-03-12T11:45:05.763Z,11.94
2023-03-12T11:47:55.695Z,12.27
2023-03-12T11:50:44.820Z,11.39
2023-03-12T11:53:39.969Z,10.79
2023-03-12T11:56:28.062Z,10.19
2023-03-12T11:59:11.559Z,11.01
2023-03-12T12:01:57.198Z,12.56
2023-03-12T12:05:05.782Z,13.30
2023-03-12T12:07:56.457Z,12.31
2023-03-12T12:10:33.935Z,12.04
2023-03-12T12:13:11.886Z,12.83
2023-03-12T12:15:49.049Z,13.52
2023-03-12T12:18:50.860Z,14.43
2023-03-12T12:21:39.872Z,14.34
2023-03-12T12:24:23.727Z,13.30
2023-03-12T12:27:05.871Z,12.74
2023-03-12T12:29:53.755Z,12.57
2023-03-12T12:32:37.140Z,12.20
2023-03-12T12:35:26.020Z,11.53
2023-03-12T12:38:00.028Z,13.37
2023-03-12T12:40:37.490Z,14.66
2023-03-12T12:43:25.836Z,15.20
2023-03-12T12:45:58.021Z,14.74
2023-03-12T12:48:33.233Z,12.90
2023-03-12T12:51:06.462Z,12.49
2023-03-12T12:53:48.088Z,13.09
2023-03-12T12:56:26.999Z,14.89
2023-03-12T12:59:26.311Z,15.89
2023-03-12T13:01:58.848Z,15.15
2023-03-12T13:04:33.043Z,13.84
2023-03-12T13:07:27.625Z,14.06
2023-03-12T13:09:58.785Z,13.62
2023-03-12T13:12:34.813Z,15.62
2023-03-12T13:15:34.896Z,16.75
2023-03-12T13:18:10.552Z,14.58
2023-03-12T13:21:01.253Z,12.59
2023-03-12T13:23:39.223Z,11.60
2023-03-12T13:26:17.915Z,11.93
2023-03-12T13:29:20.182Z,12.87
2023-03-12T13:31:49.347Z,13.01
2023-03-12T13:34:47.060Z,12.78
2023-03-12T13:38:02.002Z,11.25
2023-03-12T13:41:02.706Z,11.37
2023-03-12T13:43:56.333Z,11.73
2023-03-12T13:46:43.041Z,11.31
2023-03-12T13:49:27.096Z,11.90
2023-03-12T13:52:11.039Z,13.13
2023-03-12T13:54:45.086Z,12.86
2023-03-12T13:57:31.398Z,12.91
2023-03-12T14:00:01.259Z,12.41
2023-03-12T14:02:45.333Z,11.91
2023-03-12T14:05:16.928Z,11.87
2023-03-12T14:08:12.581Z,12.11
2023-03-12T14:10:58.311Z,11.88
2023-03-12T14:13:59.954Z,12.05
2023-03-12T14:16:36.175Z,12.84
2023-03-12T14:19:07.886Z,14.43
2023-03-12T14:21:43.039Z,15.81
2023-03-12T14:24:29.909Z,15.35
2023-03-12T14:27:00.003Z,13.30
2023-03-12T14:29:32.788Z,12.53
2023-03-12T14:32:07.070Z,12.47
2023-03-12T14:34:44.013Z,12.53
2023-03-12T14:37:19.201Z,13.16
2023-03-12T14:39:54.275Z,13.12
2023-03-12T14:42:26.269Z,13.38
2023-03-12T14:44:59.286Z,12.50
2023-03-12T14:47:30.256Z,13.48
2023-03-12T14:50:00.883Z,13.09
2023-03-12T14:52:34.494Z,12.73
2023-03-12T14:55:13.305Z,12.36
2023-03-12T14:57:42.856Z,13.38
2023-03-12T15:00:25.220Z,14.85
2023-03-12T15:02:57.520Z,17.35
2023-03-12T15:05:27.976Z,20.31
2023-03-12T15:08:02.802Z,21.41
2023-03-12T15:10:34.262Z,19.60
2023-03-12T15:13:04.463Z,18.31
2023-03-12T15:15:44.656Z,17.24
2023-03-12T15:18:20.944Z,16.81
2023-03-12T15:20:53.658Z,16.32
2023-03-12T15:23:25.796Z,15.93
2023-03-12T15:26:13.754Z,18.52
2023-03-12T15:28:43.687Z,19.97
2023-03-12T15:31:15.769Z,18.66
2023-03-12T15:33:46.518Z,17.00
2023-03-12T15:36:30.132Z,15.11
2023-03-12T15:39:05.675Z,17.26
2023-03-12T15:41:47.875Z,21.22
2023-03-12T15:44:23.306Z,23.92
2023-03-12T15:46:55.491Z,24.42
2023-03-12T15:49:28.695Z,24.80
2023-03-12T15:52:09.205Z,25.42
2023-03-12T15:54:42.502Z,25.63
2023-03-12T15:57:24.371Z,25.78
2023-03-12T16:00:25.202Z,24.42
2023-03-12T16:02:58.095Z,20.72
2023-03-12T16:05:31.795Z,17.81
2023-03-12T16:08:14.011Z,15.44
2023-03-12T16:10:43.442Z,14.21
2023-03-12T16:13:16.904Z,13.06
2023-03-12T16:15:47.925Z,11.86
2023-03-12T16:18:19.922Z,11.49
2023-03-12T16:20:50.058Z,11.21
2023-03-12T16:23:20.645Z,10.83
2023-03-12T16:25:52.452Z,10.47
2023-03-12T16:28:23.314Z,9.98
2023-03-12T16:30:53.032Z,9.73
2023-03-12T16:33:24.671Z,9.42
2023-03-12T16:35:54.218Z,9.17
2023-03-12T16:38:24.643Z,9.13
2023-03-12T16:40:56.979Z,9.01
2023-03-12T16:43:29.932Z,8.76
2023-03-12T16:45:59.191Z,8.54
2023-03-12T16:48:29.887Z,8.47
2023-03-12T16:51:00.012Z,8.26
2023-03-12T16:53:31.576Z,8.05
2023-03-12T16:56:02.610Z,7.87
2023-03-12T16:58:32.245Z,7.55
2023-03-12T17:01:01.588Z,7.32
2023-03-12T17:03:36.853Z,7.29
2023-03-12T17:06:13.995Z,7.17
2023-03-12T17:08:48.290Z,6.90
2023-03-12T17:11:20.475Z,6.70
2023-03-12T17:13:53.427Z,6.50
2023-03-12T17:16:22.665Z,6.47
2023-03-12T17:18:52.226Z,6.32
2023-03-12T17:21:22.570Z,6.28
2023-03-12T17:23:56.769Z,6.16
2023-03-12T17:26:30.320Z,6.02
2023-03-12T17:28:59.890Z,5.92
2023-03-12T17:31:29.359Z,5.82
2023-03-12T17:33:59.136Z,5.79
2023-03-12T17:36:28.369Z,5.67
2023-03-12T17:38:58.668Z,5.53
2023-03-12T17:41:28.206Z,5.50
2023-03-12T17:44:01.502Z,5.45
2023-03-12T17:46:31.993Z,5.35
2023-03-12T17:49:01.173Z,5.15
2023-03-12T17:51:30.249Z,5.08
2023-03-12T17:54:00.829Z,5.17
2023-03-12T17:56:32.833Z,5.01
2023-03-12T17:59:02.021Z,4.79
2023-03-12T18:01:31.043Z,4.66
2023-03-12T18:04:02.354Z,4.50
2023-03-12T18:06:31.358Z,4.34
2023-03-12T18:09:01.900Z,4.25
2023-03-12T18:11:30.941Z,4.21
2023-03-12T18:13:59.983Z,4.00
2023-03-12T18:16:29.063Z,4.02
2023-03-12T18:18:58.259Z,3.94
2023-03-12T18:21:27.622Z,3.87
2023-03-12T18:23:59.441Z,3.85
2023-03-12T18:26:32.469Z,3.81
2023-03-12T18:29:02.339Z,3.72
2023-03-12T18:31:34.388Z,3.58
2023-03-12T18:34:03.453Z,3.44
2023-03-12T18:36:32.462Z,3.45
2023-03-12T18:39:04.520Z,3.29
2023-03-12T18:41:36.440Z,3.28
2023-03-12T18:44:06.743Z,3.20
2023-03-12T18:46:35.956Z,2.90
2023-03-12T18:49:06.241Z,2.72
2023-03-12T18:51:36.542Z,2.56
2023-03-12T18:54:06.015Z,2.68
2023-03-12T18:56:42.155Z,2.72
2023-03-12T18:59:13.092Z,2.79
2023-03-12T19:01:45.582Z,2.64
2023-03-12T19:04:19.072Z,2.50
2023-03-12T19:06:51.964Z,2.36
2023-03-12T19:09:21.435Z,2.26
2023-03-12T19:11:52.007Z,2.23
2023-03-12T19:14:21.130Z,2.16
2023-03-12T19:16:50.344Z,2.21
2023-03-12T19:19:19.852Z,2.15
2023-03-12T19:21:52.526Z,2.12
2023-03-12T19:24:22.015Z,2.20
2023-03-12T19:26:52.726Z,2.24
2023-03-12T19:29:21.759Z,2.03
2023-03-12T19:31:50.814Z,2.05
2023-03-12T19:34:20.012Z,1.93
2023-03-12T19:36:51.600Z,1.77
2023-03-12T19:39:22.606Z,1.61
2023-03-12T19:41:54.046Z,1.53
2023-03-12T19:44:23.460Z,1.64
2023-03-12T19:46:52.752Z,1.47
2023-03-12T19:49:21.710Z,1.38
2023-03-12T19:51:50.713Z,1.18
2023-03-12T19:54:19.913Z,1.29
2023-03-12T19:56:49.115Z,1.29
2023-03-12T19:59:22.317Z,1.55
2023-03-12T20:01:51.419Z,1.82
2023-03-12T20:04:22.753Z,2.14
2023-03-12T20:06:51.781Z,2.11
2023-03-12T20:09:21.809Z,1.84
2023-03-12T20:11:50.941Z,1.48
2023-03-12T20:14:21.485Z,0.97
2023-03-12T20:16:51.039Z,1.11
2023-03-12T20:19:20.313Z,1.31
2023-03-12T20:21:52.990Z,1.35
2023-03-12T20:24:22.213Z,1.32
2023-03-12T20:26:51.328Z,1.44
2023-03-12T20:29:21.736Z,1.32
2023-03-12T20:31:51.186Z,1.27
2023-03-12T20:34:20.356Z,1.00
2023-03-12T20:36:51.526Z,0.68
2023-03-12T20:39:20.761Z,0.58
2023-03-12T20:41:50.742Z,0.60
2023-03-12T20:44:21.437Z,0.52
2023-03-12T20:46:50.582Z,0.60
2023-03-12T20:49:19.843Z,0.71
2023-03-12T20:51:49.825Z,0.76
2023-03-12T20:54:19.059Z,0.52
2023-03-12T20:56:48.413Z,0.39
2023-03-12T20:59:17.973Z,0.29
2023-03-12T21:01:48.542Z,0.18
2023-03-12T21:04:17.596Z,0.14
2023-03-12T21:06:51.813Z,0.28
2023-03-12T21:09:24.084Z,0.36
2023-03-12T21:11:53.073Z,0.30
2023-03-12T21:14:22.089Z,0.22
2023-03-12T21:16:52.731Z,0.28
2023-03-12T21:19:24.812Z,0.26
2023-03-12T21:21:53.897Z,0.14
2023-03-12T21:24:22.935Z,0.19
2023-03-12T21:26:51.954Z,0.21
2023-03-12T21:29:20.914Z,0.19
2023-03-12T21:31:51.832Z,0.12
2023-03-12T21:34:22.517Z,-0.01
2023-03-12T21:36:51.604Z,-0.05
2023-03-12T21:39:22.933Z,-0.15
2023-03-12T21:41:52.005Z,-0.18
2023-03-12T21:44:21.023Z,-0.23
2023-03-12T21:46:52.633Z,-0.17
2023-03-12T21:49:23.105Z,-0.07
2023-03-12T21:51:52.136Z,-0.30
2023-03-12T21:54:21.227Z,-0.22
2023-03-12T21:56:50.337Z,-0.36
2023-03-12T21:59:19.403Z,-0.42
2023-03-12T22:01:48.464Z,-0.43
2023-03-12T22:04:17.575Z,-0.43
2023-03-12T22:06:48.090Z,-0.39
2023-03-12T22:09:17.194Z,-0.10
2023-03-12T22:11:46.351Z,-0.07
2023-03-12T22:14:15.718Z,0.06
2023-03-12T22:16:44.766Z,0.26
2023-03-12T22:19:13.868Z,0.14
2023-03-12T22:21:43.517Z,-0.02
2023-03-12T22:24:13.905Z,0.05
2023-03-12T22:26:42.936Z,-0.06
2023-03-12T22:29:11.956Z,-0.16
2023-03-12T22:31:41.003Z,-0.30
2023-03-12T22:34:10.087Z,-0.15
2023-03-12T22:36:40.118Z,0.06
2023-03-12T22:39:09.225Z,0.09
2023-03-12T22:41:39.577Z,0.07
2023-03-12T22:44:09.256Z,0.08
2023-03-12T22:46:38.443Z,-0.30
2023-03-12T22:49:07.668Z,-0.27
2023-03-12T22:51:39.102Z,-0.27
2023-03-12T22:54:08.180Z,-0.46
2023-03-12T22:56:37.623Z,-0.44
2023-03-12T22:59:08.203Z,-0.47
2023-03-12T23:01:37.363Z,-0.37
2023-03-12T23:04:06.486Z,-0.44
2023-03-12T23:06:35.692Z,-0.43
2023-03-12T23:09:07.324Z,-0.41
2023-03-12T23:11:36.509Z,-0.46
2023-03-12T23:14:05.528Z,-0.38
2023-03-12T23:16:36.041Z,-0.53
2023-03-12T23:19:05.130Z,-0.57
2023-03-12T23:21:36.841Z,-0.41
2023-03-12T23:24:06.236Z,-0.16
2023-03-12T23:26:35.491Z,-0.27
2023-03-12T23:29:04.527Z,-0.35
2023-03-12T23:31:37.833Z,-0.40
2023-03-12T23:34:08.446Z,-0.41
2023-03-12T23:36:37.621Z,-0.41
2023-03-12T23:39:07.375Z,-0.59
2023-03-12T23:41:36.373Z,-0.66
2023-03-12T23:44:05.822Z,-0.63
2023-03-12T23:46:35.160Z,-0.60
2023-03-12T23:49:05.496Z,-0.65
2023-03-12T23:51:34.903Z,-0.58
2023-03-12T23:54:05.991Z,-0.70
2023-03-12T23:56:37.649Z,-0.57
2023-03-12T23:59:09.119Z,-0.69
